sensor_id;sensor_type;location;lat;lon;timestamp;P1;durP1;ratioP1;P2;durP2;ratioP2
6638;SDS011;3355;52.882;8.430;2023-05-14T00:01:09;8.33;;;7.47;;
6638;SDS011;3355;52.882;8.430;2023-05-14T00:03:36;7.53;;;6.83;;
6638;SDS011;3355;52.882;8.430;2023-05-14T00:06:06;8.20;;;7.40;;
6638;SDS011;3355;52.882;8.430;2023-05-14T00:08:33;7.63;;;6.93;;
6638;SDS011;3355;52.882;8.430;2023-05-14T00:11:00;8.40;;;7.63;;
6638;SDS011;3355;52.882;8.430;2023-05-14T00:13:26;9.63;;;7.40;;
6638;SDS011;3355;52.882;8.430;2023-05-14T00:15:53;7.87;;;7.13;;
6638;SDS011;3355;52.882;8.430;2023-05-14T00:18:20;7.03;;;6.20;;
6638;SDS011;3355;52.882;8.430;2023-05-14T00:20:46;7.27;;;6.50;;
6638;SDS011;3355;52.882;8.430;2023-05-14T00:23:17;7.50;;;6.90;;
6638;SDS011;3355;52.882;8.430;2023-05-14T00:25:43;9.47;;;6.50;;
6638;SDS011;3355;52.882;8.430;2023-05-14T00:28:10;7.17;;;6.47;;
6638;SDS011;3355;52.882;8.430;2023-05-14T00:30:36;7.00;;;6.30;;
6638;SDS011;3355;52.882;8.430;2023-05-14T00:33:03;7.17;;;6.47;;
6638;SDS011;3355;52.882;8.430;2023-05-14T00:35:30;7.40;;;6.70;;
6638;SDS011;3355;52.882;8.430;2023-05-14T00:37:59;7.07;;;6.10;;
6638;SDS011;3355;52.882;8.430;2023-05-14T00:40:27;7.83;;;6.80;;
6638;SDS011;3355;52.882;8.430;2023-05-14T00:42:54;8.13;;;5.87;;
6638;SDS011;3355;52.882;8.430;2023-05-14T00:45:21;6.90;;;6.20;;
6638;SDS011;3355;52.882;8.430;2023-05-14T00:47:48;6.20;;;5.70;;
6638;SDS011;3355;52.882;8.430;2023-05-14T00:50:15;6.70;;;6.10;;
6638;SDS011;3355;52.882;8.430;2023-05-14T00:52:42;7.87;;;6.80;;
6638;SDS011;3355;52.882;8.430;2023-05-14T00:55:09;8.30;;;6.80;;
6638;SDS011;3355;52.882;8.430;2023-05-14T00:57:41;6.90;;;6.20;;
6638;SDS011;3355;52.882;8.430;2023-05-14T01:00:09;7.57;;;6.83;;
6638;SDS011;3355;52.882;8.430;2023-05-14T01:02:36;9.40;;;5.87;;
6638;SDS011;3355;52.882;8.430;2023-05-14T01:05:02;7.50;;;6.80;;
6638;SDS011;3355;52.882;8.430;2023-05-14T01:07:31;10.10;;;6.67;;
6638;SDS011;3355;52.882;8.430;2023-05-14T01:10:02;9.20;;;7.57;;
6638;SDS011;3355;52.882;8.430;2023-05-14T01:12:35;7.90;;;6.93;;
6638;SDS011;3355;52.882;8.430;2023-05-14T01:15:08;7.73;;;6.57;;
6638;SDS011;3355;52.882;8.430;2023-05-14T01:17:37;7.10;;;6.50;;
6638;SDS011;3355;52.882;8.430;2023-05-14T01:20:07;8.70;;;7.90;;
6638;SDS011;3355;52.882;8.430;2023-05-14T01:22:36;7.10;;;6.50;;
6638;SDS011;3355;52.882;8.430;2023-05-14T01:25:02;7.50;;;6.80;;
6638;SDS011;3355;52.882;8.430;2023-05-14T01:27:30;6.97;;;6.27;;
6638;SDS011;3355;52.882;8.430;2023-05-14T01:30:02;7.27;;;6.63;;
6638;SDS011;3355;52.882;8.430;2023-05-14T01:32:32;7.83;;;7.03;;
6638;SDS011;3355;52.882;8.430;2023-05-14T01:34:59;8.30;;;7.40;;
6638;SDS011;3355;52.882;8.430;2023-05-14T01:37:26;7.30;;;6.60;;
6638;SDS011;3355;52.882;8.430;2023-05-14T01:39:57;7.90;;;7.10;;
6638;SDS011;3355;52.882;8.430;2023-05-14T01:42:24;7.53;;;6.83;;
6638;SDS011;3355;52.882;8.430;2023-05-14T01:44:51;8.57;;;6.80;;
6638;SDS011;3355;52.882;8.430;2023-05-14T01:47:18;7.90;;;7.10;;
6638;SDS011;3355;52.882;8.430;2023-05-14T01:49:45;6.60;;;6.00;;
6638;SDS011;3355;52.882;8.430;2023-05-14T01:52:11;8.33;;;7.53;;
6638;SDS011;3355;52.882;8.430;2023-05-14T01:54:38;7.80;;;7.10;;
6638;SDS011;3355;52.882;8.430;2023-05-14T01:57:06;7.10;;;6.40;;
6638;SDS011;3355;52.882;8.430;2023-05-14T01:59:33;7.53;;;6.67;;
6638;SDS011;3355;52.882;8.430;2023-05-14T02:02:00;6.80;;;6.20;;
6638;SDS011;3355;52.882;8.430;2023-05-14T02:04:26;7.97;;;7.17;;
6638;SDS011;3355;52.882;8.430;2023-05-14T02:06:53;7.97;;;7.27;;
6638;SDS011;3355;52.882;8.430;2023-05-14T02:09:20;8.10;;;7.13;;
6638;SDS011;3355;52.882;8.430;2023-05-14T02:11:46;6.53;;;5.90;;
6638;SDS011;3355;52.882;8.430;2023-05-14T02:14:14;7.50;;;6.80;;
6638;SDS011;3355;52.882;8.430;2023-05-14T02:16:41;7.90;;;6.83;;
6638;SDS011;3355;52.882;8.430;2023-05-14T02:19:08;7.73;;;7.10;;
6638;SDS011;3355;52.882;8.430;2023-05-14T02:21:35;6.70;;;5.87;;
6638;SDS011;3355;52.882;8.430;2023-05-14T02:24:01;7.17;;;6.47;;
6638;SDS011;3355;52.882;8.430;2023-05-14T02:26:28;7.37;;;6.67;;
6638;SDS011;3355;52.882;8.430;2023-05-14T02:28:55;7.63;;;6.93;;
6638;SDS011;3355;52.882;8.430;2023-05-14T02:31:23;7.80;;;7.00;;
6638;SDS011;3355;52.882;8.430;2023-05-14T02:33:50;8.03;;;7.23;;
6638;SDS011;3355;52.882;8.430;2023-05-14T02:36:16;8.77;;;7.07;;
6638;SDS011;3355;52.882;8.430;2023-05-14T02:38:43;7.03;;;6.33;;
6638;SDS011;3355;52.882;8.430;2023-05-14T02:41:10;7.27;;;6.57;;
6638;SDS011;3355;52.882;8.430;2023-05-14T02:43:36;7.53;;;6.73;;
6638;SDS011;3355;52.882;8.430;2023-05-14T02:46:03;7.40;;;6.70;;
6638;SDS011;3355;52.882;8.430;2023-05-14T02:48:31;8.00;;;6.80;;
6638;SDS011;3355;52.882;8.430;2023-05-14T02:50:58;7.10;;;6.40;;
6638;SDS011;3355;52.882;8.430;2023-05-14T02:53:25;8.97;;;6.87;;
6638;SDS011;3355;52.882;8.430;2023-05-14T02:55:52;8.53;;;6.90;;
6638;SDS011;3355;52.882;8.430;2023-05-14T02:58:19;7.30;;;6.60;;
6638;SDS011;3355;52.882;8.430;2023-05-14T03:00:46;9.10;;;6.73;;
6638;SDS011;3355;52.882;8.430;2023-05-14T03:03:12;7.83;;;7.13;;
6638;SDS011;3355;52.882;8.430;2023-05-14T03:05:40;7.10;;;6.40;;
6638;SDS011;3355;52.882;8.430;2023-05-14T03:08:07;6.33;;;5.73;;
6638;SDS011;3355;52.882;8.430;2023-05-14T03:10:34;7.60;;;6.80;;
6638;SDS011;3355;52.882;8.430;2023-05-14T03:13:01;7.97;;;7.00;;
6638;SDS011;3355;52.882;8.430;2023-05-14T03:15:28;7.13;;;6.30;;
6638;SDS011;3355;52.882;8.430;2023-05-14T03:17:55;7.90;;;6.40;;
6638;SDS011;3355;52.882;8.430;2023-05-14T03:20:22;6.80;;;6.20;;
6638;SDS011;3355;52.882;8.430;2023-05-14T03:22:51;6.37;;;5.77;;
6638;SDS011;3355;52.882;8.430;2023-05-14T03:25:18;7.30;;;6.70;;
6638;SDS011;3355;52.882;8.430;2023-05-14T03:27:45;7.23;;;6.53;;
6638;SDS011;3355;52.882;8.430;2023-05-14T03:30:12;7.60;;;6.90;;
6638;SDS011;3355;52.882;8.430;2023-05-14T03:32:39;7.50;;;6.80;;
6638;SDS011;3355;52.882;8.430;2023-05-14T03:35:07;6.37;;;5.77;;
6638;SDS011;3355;52.882;8.430;2023-05-14T03:37:34;7.40;;;6.70;;
6638;SDS011;3355;52.882;8.430;2023-05-14T03:40:02;8.70;;;7.30;;
6638;SDS011;3355;52.882;8.430;2023-05-14T03:42:30;8.10;;;6.63;;
6638;SDS011;3355;52.882;8.430;2023-05-14T03:44:56;8.03;;;7.23;;
6638;SDS011;3355;52.882;8.430;2023-05-14T03:47:23;7.20;;;6.47;;
6638;SDS011;3355;52.882;8.430;2023-05-14T03:49:49;8.07;;;6.10;;
6638;SDS011;3355;52.882;8.430;2023-05-14T03:52:16;7.53;;;6.83;;
6638;SDS011;3355;52.882;8.430;2023-05-14T03:54:43;8.90;;;7.27;;
6638;SDS011;3355;52.882;8.430;2023-05-14T03:57:11;8.30;;;7.50;;
6638;SDS011;3355;52.882;8.430;2023-05-14T03:59:38;6.87;;;6.17;;
6638;SDS011;3355;52.882;8.430;2023-05-14T04:02:04;7.17;;;6.53;;
6638;SDS011;3355;52.882;8.430;2023-05-14T04:04:31;6.90;;;6.30;;
6638;SDS011;3355;52.882;8.430;2023-05-14T04:06:57;7.37;;;6.67;;
6638;SDS011;3355;52.882;8.430;2023-05-14T04:09:24;7.03;;;6.33;;
6638;SDS011;3355;52.882;8.430;2023-05-14T04:11:51;7.80;;;6.93;;
6638;SDS011;3355;52.882;8.430;2023-05-14T04:14:19;7.10;;;6.40;;
6638;SDS011;3355;52.882;8.430;2023-05-14T04:16:46;9.03;;;6.93;;
6638;SDS011;3355;52.882;8.430;2023-05-14T04:19:12;7.67;;;6.80;;
6638;SDS011;3355;52.882;8.430;2023-05-14T04:21:39;8.70;;;7.90;;
6638;SDS011;3355;52.882;8.430;2023-05-14T04:24:12;8.07;;;7.27;;
6638;SDS011;3355;52.882;8.430;2023-05-14T04:26:47;7.40;;;6.70;;
6638;SDS011;3355;52.882;8.430;2023-05-14T04:29:13;10.33;;;7.23;;
6638;SDS011;3355;52.882;8.430;2023-05-14T04:31:41;7.43;;;6.83;;
6638;SDS011;3355;52.882;8.430;2023-05-14T04:34:10;8.70;;;7.40;;
6638;SDS011;3355;52.882;8.430;2023-05-14T04:36:37;8.07;;;7.37;;
6638;SDS011;3355;52.882;8.430;2023-05-14T04:39:04;8.60;;;7.80;;
6638;SDS011;3355;52.882;8.430;2023-05-14T04:41:31;7.77;;;6.80;;
6638;SDS011;3355;52.882;8.430;2023-05-14T04:43:58;7.80;;;7.10;;
6638;SDS011;3355;52.882;8.430;2023-05-14T04:46:26;9.83;;;7.07;;
6638;SDS011;3355;52.882;8.430;2023-05-14T04:48:54;8.50;;;7.60;;
6638;SDS011;3355;52.882;8.430;2023-05-14T04:51:21;7.83;;;7.03;;
6638;SDS011;3355;52.882;8.430;2023-05-14T04:53:48;8.83;;;7.17;;
6638;SDS011;3355;52.882;8.430;2023-05-14T04:56:15;7.67;;;6.87;;
6638;SDS011;3355;52.882;8.430;2023-05-14T04:58:42;8.40;;;6.60;;
6638;SDS011;3355;52.882;8.430;2023-05-14T05:01:08;8.30;;;7.60;;
6638;SDS011;3355;52.882;8.430;2023-05-14T05:03:35;8.03;;;7.23;;
6638;SDS011;3355;52.882;8.430;2023-05-14T05:06:03;8.07;;;7.27;;
6638;SDS011;3355;52.882;8.430;2023-05-14T05:08:30;9.70;;;7.80;;
6638;SDS011;3355;52.882;8.430;2023-05-14T05:10:57;8.83;;;8.00;;
6638;SDS011;3355;52.882;8.430;2023-05-14T05:13:24;7.53;;;6.83;;
6638;SDS011;3355;52.882;8.430;2023-05-14T05:15:51;8.63;;;7.83;;
6638;SDS011;3355;52.882;8.430;2023-05-14T05:18:17;8.17;;;7.47;;
6638;SDS011;3355;52.882;8.430;2023-05-14T05:20:44;8.63;;;7.60;;
6638;SDS011;3355;52.882;8.430;2023-05-14T05:23:12;7.40;;;6.70;;
6638;SDS011;3355;52.882;8.430;2023-05-14T05:25:39;8.13;;;7.33;;
6638;SDS011;3355;52.882;8.430;2023-05-14T05:28:06;8.80;;;7.90;;
6638;SDS011;3355;52.882;8.430;2023-05-14T05:30:33;8.50;;;7.60;;
6638;SDS011;3355;52.882;8.430;2023-05-14T05:33:00;12.13;;;7.43;;
6638;SDS011;3355;52.882;8.430;2023-05-14T05:35:26;7.87;;;7.07;;
6638;SDS011;3355;52.882;8.430;2023-05-14T05:37:53;9.57;;;8.67;;
6638;SDS011;3355;52.882;8.430;2023-05-14T05:40:21;8.73;;;7.83;;
6638;SDS011;3355;52.882;8.430;2023-05-14T05:42:48;8.00;;;7.20;;
6638;SDS011;3355;52.882;8.430;2023-05-14T05:45:17;9.17;;;8.10;;
6638;SDS011;3355;52.882;8.430;2023-05-14T05:47:43;8.17;;;7.43;;
6638;SDS011;3355;52.882;8.430;2023-05-14T05:50:10;10.30;;;7.87;;
6638;SDS011;3355;52.882;8.430;2023-05-14T05:52:37;8.17;;;7.37;;
6638;SDS011;3355;52.882;8.430;2023-05-14T05:55:04;7.90;;;7.20;;
6638;SDS011;3355;52.882;8.430;2023-05-14T05:57:33;8.30;;;7.60;;
6638;SDS011;3355;52.882;8.430;2023-05-14T06:00:00;9.53;;;7.67;;
6638;SDS011;3355;52.882;8.430;2023-05-14T06:02:36;9.80;;;7.40;;
6638;SDS011;3355;52.882;8.430;2023-05-14T06:05:03;9.13;;;8.13;;
6638;SDS011;3355;52.882;8.430;2023-05-14T06:07:31;8.50;;;7.60;;
6638;SDS011;3355;52.882;8.430;2023-05-14T06:09:58;8.40;;;7.70;;
6638;SDS011;3355;52.882;8.430;2023-05-14T06:12:25;8.60;;;7.80;;
6638;SDS011;3355;52.882;8.430;2023-05-14T06:14:53;8.40;;;7.60;;
6638;SDS011;3355;52.882;8.430;2023-05-14T06:17:21;7.80;;;7.00;;
6638;SDS011;3355;52.882;8.430;2023-05-14T06:19:48;9.03;;;7.60;;
6638;SDS011;3355;52.882;8.430;2023-05-14T06:22:16;8.73;;;7.50;;
6638;SDS011;3355;52.882;8.430;2023-05-14T06:24:43;8.20;;;7.40;;
6638;SDS011;3355;52.882;8.430;2023-05-14T06:27:10;8.70;;;7.80;;
6638;SDS011;3355;52.882;8.430;2023-05-14T06:29:36;8.57;;;7.50;;
6638;SDS011;3355;52.882;8.430;2023-05-14T06:32:05;8.97;;;7.97;;
6638;SDS011;3355;52.882;8.430;2023-05-14T06:34:34;8.43;;;7.30;;
6638;SDS011;3355;52.882;8.430;2023-05-14T06:37:01;8.83;;;7.93;;
6638;SDS011;3355;52.882;8.430;2023-05-14T06:39:28;8.07;;;7.37;;
6638;SDS011;3355;52.882;8.430;2023-05-14T06:41:55;10.40;;;8.27;;
6638;SDS011;3355;52.882;8.430;2023-05-14T06:44:22;8.33;;;7.50;;
6638;SDS011;3355;52.882;8.430;2023-05-14T06:46:48;7.43;;;6.73;;
6638;SDS011;3355;52.882;8.430;2023-05-14T06:49:30;8.60;;;7.43;;
6638;SDS011;3355;52.882;8.430;2023-05-14T06:51:57;7.50;;;6.80;;
6638;SDS011;3355;52.882;8.430;2023-05-14T06:54:24;7.90;;;7.10;;
6638;SDS011;3355;52.882;8.430;2023-05-14T06:56:51;8.13;;;7.33;;
6638;SDS011;3355;52.882;8.430;2023-05-14T06:59:17;8.50;;;7.70;;
6638;SDS011;3355;52.882;8.430;2023-05-14T07:01:44;8.47;;;7.23;;
6638;SDS011;3355;52.882;8.430;2023-05-14T07:04:11;7.67;;;6.90;;
6638;SDS011;3355;52.882;8.430;2023-05-14T07:06:39;8.67;;;7.50;;
6638;SDS011;3355;52.882;8.430;2023-05-14T07:09:05;7.37;;;6.67;;
6638;SDS011;3355;52.882;8.430;2023-05-14T07:11:32;6.57;;;5.97;;
6638;SDS011;3355;52.882;8.430;2023-05-14T07:13:59;6.80;;;6.20;;
6638;SDS011;3355;52.882;8.430;2023-05-14T07:16:26;7.57;;;6.83;;
6638;SDS011;3355;52.882;8.430;2023-05-14T07:18:53;7.13;;;6.23;;
6638;SDS011;3355;52.882;8.430;2023-05-14T07:21:19;8.83;;;6.90;;
6638;SDS011;3355;52.882;8.430;2023-05-14T07:23:47;7.53;;;6.43;;
6638;SDS011;3355;52.882;8.430;2023-05-14T07:26:14;8.07;;;7.27;;
6638;SDS011;3355;52.882;8.430;2023-05-14T07:28:41;7.10;;;6.50;;
6638;SDS011;3355;52.882;8.430;2023-05-14T07:31:07;6.77;;;6.27;;
6638;SDS011;3355;52.882;8.430;2023-05-14T07:33:34;6.20;;;5.60;;
6638;SDS011;3355;52.882;8.430;2023-05-14T07:36:01;7.63;;;6.90;;
6638;SDS011;3355;52.882;8.430;2023-05-14T07:38:29;6.97;;;6.27;;
6638;SDS011;3355;52.882;8.430;2023-05-14T07:40:58;7.20;;;6.60;;
6638;SDS011;3355;52.882;8.430;2023-05-14T07:43:24;6.87;;;6.10;;
6638;SDS011;3355;52.882;8.430;2023-05-14T07:45:51;10.97;;;6.43;;
6638;SDS011;3355;52.882;8.430;2023-05-14T07:48:18;6.13;;;5.53;;
6638;SDS011;3355;52.882;8.430;2023-05-14T07:50:46;7.00;;;6.40;;
6638;SDS011;3355;52.882;8.430;2023-05-14T07:53:13;5.50;;;5.00;;
6638;SDS011;3355;52.882;8.430;2023-05-14T07:55:40;6.00;;;5.50;;
6638;SDS011;3355;52.882;8.430;2023-05-14T07:58:09;6.70;;;6.03;;
6638;SDS011;3355;52.882;8.430;2023-05-14T08:00:36;5.80;;;5.30;;
6638;SDS011;3355;52.882;8.430;2023-05-14T08:03:03;6.20;;;5.70;;
6638;SDS011;3355;52.882;8.430;2023-05-14T08:05:30;5.07;;;4.67;;
6638;SDS011;3355;52.882;8.430;2023-05-14T08:07:57;6.90;;;5.30;;
6638;SDS011;3355;52.882;8.430;2023-05-14T08:10:23;5.10;;;4.63;;
6638;SDS011;3355;52.882;8.430;2023-05-14T08:12:50;6.30;;;5.23;;
6638;SDS011;3355;52.882;8.430;2023-05-14T08:15:19;5.50;;;5.00;;
6638;SDS011;3355;52.882;8.430;2023-05-14T08:17:46;5.57;;;4.73;;
6638;SDS011;3355;52.882;8.430;2023-05-14T08:20:13;6.53;;;4.93;;
6638;SDS011;3355;52.882;8.430;2023-05-14T08:22:39;5.33;;;4.83;;
6638;SDS011;3355;52.882;8.430;2023-05-14T08:25:06;4.73;;;4.33;;
6638;SDS011;3355;52.882;8.430;2023-05-14T08:27:34;4.90;;;4.47;;
6638;SDS011;3355;52.882;8.430;2023-05-14T08:30:07;4.97;;;4.57;;
6638;SDS011;3355;52.882;8.430;2023-05-14T08:32:35;4.30;;;4.00;;
6638;SDS011;3355;52.882;8.430;2023-05-14T08:35:02;5.03;;;4.53;;
6638;SDS011;3355;52.882;8.430;2023-05-14T08:37:29;4.73;;;4.20;;
6638;SDS011;3355;52.882;8.430;2023-05-14T08:39:56;3.87;;;3.53;;
6638;SDS011;3355;52.882;8.430;2023-05-14T08:42:23;5.73;;;4.63;;
6638;SDS011;3355;52.882;8.430;2023-05-14T08:44:52;4.53;;;4.20;;
6638;SDS011;3355;52.882;8.430;2023-05-14T08:47:25;4.80;;;4.40;;
6638;SDS011;3355;52.882;8.430;2023-05-14T08:50:00;4.80;;;4.40;;
6638;SDS011;3355;52.882;8.430;2023-05-14T08:52:28;6.27;;;5.13;;
6638;SDS011;3355;52.882;8.430;2023-05-14T08:54:55;5.03;;;4.53;;
6638;SDS011;3355;52.882;8.430;2023-05-14T08:57:22;4.90;;;4.40;;
6638;SDS011;3355;52.882;8.430;2023-05-14T08:59:51;4.93;;;4.43;;
6638;SDS011;3355;52.882;8.430;2023-05-14T09:02:19;5.00;;;4.60;;
6638;SDS011;3355;52.882;8.430;2023-05-14T09:04:47;4.67;;;4.30;;
6638;SDS011;3355;52.882;8.430;2023-05-14T09:07:16;4.90;;;4.50;;
6638;SDS011;3355;52.882;8.430;2023-05-14T09:09:43;5.70;;;5.20;;
6638;SDS011;3355;52.882;8.430;2023-05-14T09:12:10;5.53;;;4.83;;
6638;SDS011;3355;52.882;8.430;2023-05-14T09:14:36;5.63;;;5.20;;
6638;SDS011;3355;52.882;8.430;2023-05-14T09:17:03;4.10;;;3.73;;
6638;SDS011;3355;52.882;8.430;2023-05-14T09:19:30;5.70;;;5.10;;
6638;SDS011;3355;52.882;8.430;2023-05-14T09:21:57;4.53;;;4.17;;
6638;SDS011;3355;52.882;8.430;2023-05-14T09:24:26;4.97;;;4.13;;
6638;SDS011;3355;52.882;8.430;2023-05-14T09:26:54;4.83;;;4.43;;
6638;SDS011;3355;52.882;8.430;2023-05-14T09:29:22;4.57;;;4.20;;
6638;SDS011;3355;52.882;8.430;2023-05-14T09:31:50;4.83;;;4.30;;
6638;SDS011;3355;52.882;8.430;2023-05-14T09:34:24;5.07;;;4.60;;
6638;SDS011;3355;52.882;8.430;2023-05-14T09:36:53;5.10;;;4.60;;
6638;SDS011;3355;52.882;8.430;2023-05-14T09:39:21;7.87;;;4.17;;
6638;SDS011;3355;52.882;8.430;2023-05-14T09:41:50;4.57;;;4.17;;
6638;SDS011;3355;52.882;8.430;2023-05-14T09:44:17;4.47;;;4.07;;
6638;SDS011;3355;52.882;8.430;2023-05-14T09:46:43;3.70;;;3.40;;
6638;SDS011;3355;52.882;8.430;2023-05-14T09:49:10;3.87;;;3.57;;
6638;SDS011;3355;52.882;8.430;2023-05-14T09:51:37;4.47;;;4.07;;
6638;SDS011;3355;52.882;8.430;2023-05-14T09:54:05;5.20;;;4.10;;
6638;SDS011;3355;52.882;8.430;2023-05-14T09:56:31;4.50;;;3.90;;
6638;SDS011;3355;52.882;8.430;2023-05-14T09:59:00;4.67;;;4.27;;
6638;SDS011;3355;52.882;8.430;2023-05-14T10:01:28;4.67;;;4.27;;
6638;SDS011;3355;52.882;8.430;2023-05-14T10:03:55;4.67;;;4.27;;
6638;SDS011;3355;52.882;8.430;2023-05-14T10:06:23;4.53;;;4.23;;
6638;SDS011;3355;52.882;8.430;2023-05-14T10:08:52;4.83;;;4.40;;
6638;SDS011;3355;52.882;8.430;2023-05-14T10:11:21;4.10;;;3.80;;
6638;SDS011;3355;52.882;8.430;2023-05-14T10:13:51;3.93;;;3.63;;
6638;SDS011;3355;52.882;8.430;2023-05-14T10:16:23;4.63;;;4.23;;
6638;SDS011;3355;52.882;8.430;2023-05-14T10:18:55;3.87;;;3.57;;
6638;SDS011;3355;52.882;8.430;2023-05-14T10:21:26;4.20;;;3.80;;
6638;SDS011;3355;52.882;8.430;2023-05-14T10:23:55;4.83;;;3.97;;
6638;SDS011;3355;52.882;8.430;2023-05-14T10:26:22;4.00;;;3.70;;
6638;SDS011;3355;52.882;8.430;2023-05-14T10:28:49;4.20;;;3.90;;
6638;SDS011;3355;52.882;8.430;2023-05-14T10:31:15;4.27;;;3.97;;
6638;SDS011;3355;52.882;8.430;2023-05-14T10:33:46;4.77;;;4.40;;
6638;SDS011;3355;52.882;8.430;2023-05-14T10:36:14;5.37;;;4.30;;
6638;SDS011;3355;52.882;8.430;2023-05-14T10:38:41;3.87;;;3.57;;
6638;SDS011;3355;52.882;8.430;2023-05-14T10:41:09;4.17;;;3.87;;
6638;SDS011;3355;52.882;8.430;2023-05-14T10:43:37;4.53;;;4.13;;
6638;SDS011;3355;52.882;8.430;2023-05-14T10:46:05;4.00;;;3.70;;
6638;SDS011;3355;52.882;8.430;2023-05-14T10:48:32;4.20;;;3.83;;
6638;SDS011;3355;52.882;8.430;2023-05-14T10:51:00;4.03;;;3.73;;
6638;SDS011;3355;52.882;8.430;2023-05-14T10:53:31;4.27;;;3.87;;
6638;SDS011;3355;52.882;8.430;2023-05-14T10:56:00;4.40;;;4.10;;
6638;SDS011;3355;52.882;8.430;2023-05-14T10:58:29;4.63;;;4.23;;
6638;SDS011;3355;52.882;8.430;2023-05-14T11:00:57;5.10;;;4.60;;
6638;SDS011;3355;52.882;8.430;2023-05-14T11:03:27;3.87;;;3.53;;
6638;SDS011;3355;52.882;8.430;2023-05-14T11:05:56;4.37;;;3.97;;
6638;SDS011;3355;52.882;8.430;2023-05-14T11:08:24;5.30;;;4.27;;
6638;SDS011;3355;52.882;8.430;2023-05-14T11:10:51;4.40;;;4.00;;
6638;SDS011;3355;52.882;8.430;2023-05-14T11:13:20;4.43;;;4.10;;
6638;SDS011;3355;52.882;8.430;2023-05-14T11:15:47;4.53;;;4.13;;
6638;SDS011;3355;52.882;8.430;2023-05-14T11:18:24;4.80;;;4.40;;
6638;SDS011;3355;52.882;8.430;2023-05-14T11:20:52;5.80;;;4.40;;
6638;SDS011;3355;52.882;8.430;2023-05-14T11:23:22;4.60;;;3.90;;
6638;SDS011;3355;52.882;8.430;2023-05-14T11:25:52;5.07;;;4.13;;
6638;SDS011;3355;52.882;8.430;2023-05-14T11:28:19;4.33;;;3.87;;
6638;SDS011;3355;52.882;8.430;2023-05-14T11:30:47;4.17;;;3.87;;
6638;SDS011;3355;52.882;8.430;2023-05-14T11:33:14;4.87;;;4.40;;
6638;SDS011;3355;52.882;8.430;2023-05-14T11:35:41;4.70;;;4.30;;
6638;SDS011;3355;52.882;8.430;2023-05-14T11:38:12;4.23;;;3.83;;
6638;SDS011;3355;52.882;8.430;2023-05-14T11:40:39;4.43;;;4.13;;
6638;SDS011;3355;52.882;8.430;2023-05-14T11:43:07;3.90;;;3.60;;
6638;SDS011;3355;52.882;8.430;2023-05-14T11:45:34;4.27;;;3.80;;
6638;SDS011;3355;52.882;8.430;2023-05-14T11:48:01;4.00;;;3.67;;
6638;SDS011;3355;52.882;8.430;2023-05-14T11:50:35;4.40;;;4.00;;
6638;SDS011;3355;52.882;8.430;2023-05-14T11:53:02;3.80;;;3.50;;
6638;SDS011;3355;52.882;8.430;2023-05-14T11:55:29;3.90;;;3.60;;
6638;SDS011;3355;52.882;8.430;2023-05-14T11:57:56;5.03;;;4.40;;
6638;SDS011;3355;52.882;8.430;2023-05-14T12:00:24;4.10;;;3.70;;
6638;SDS011;3355;52.882;8.430;2023-05-14T12:02:51;3.77;;;3.47;;
6638;SDS011;3355;52.882;8.430;2023-05-14T12:05:19;4.10;;;3.80;;
6638;SDS011;3355;52.882;8.430;2023-05-14T12:07:45;3.67;;;3.33;;
6638;SDS011;3355;52.882;8.430;2023-05-14T12:10:13;4.00;;;3.70;;
6638;SDS011;3355;52.882;8.430;2023-05-14T12:12:46;4.10;;;3.80;;
6638;SDS011;3355;52.882;8.430;2023-05-14T12:15:14;3.87;;;3.57;;
6638;SDS011;3355;52.882;8.430;2023-05-14T12:17:42;7.00;;;3.73;;
6638;SDS011;3355;52.882;8.430;2023-05-14T12:20:14;3.50;;;3.20;;
6638;SDS011;3355;52.882;8.430;2023-05-14T12:22:42;3.80;;;3.50;;
6638;SDS011;3355;52.882;8.430;2023-05-14T12:25:09;3.60;;;3.30;;
6638;SDS011;3355;52.882;8.430;2023-05-14T12:27:38;3.77;;;3.47;;
6638;SDS011;3355;52.882;8.430;2023-05-14T12:30:05;3.50;;;3.20;;
6638;SDS011;3355;52.882;8.430;2023-05-14T12:32:33;7.20;;;3.47;;
6638;SDS011;3355;52.882;8.430;2023-05-14T12:35:03;3.80;;;3.50;;
6638;SDS011;3355;52.882;8.430;2023-05-14T12:37:30;3.77;;;3.47;;
6638;SDS011;3355;52.882;8.430;2023-05-14T12:39:57;4.43;;;4.07;;
6638;SDS011;3355;52.882;8.430;2023-05-14T12:42:24;3.53;;;3.23;;
6638;SDS011;3355;52.882;8.430;2023-05-14T12:44:51;4.87;;;4.37;;
6638;SDS011;3355;52.882;8.430;2023-05-14T12:47:18;3.60;;;3.30;;
6638;SDS011;3355;52.882;8.430;2023-05-14T12:49:44;4.00;;;3.60;;
6638;SDS011;3355;52.882;8.430;2023-05-14T12:52:13;3.77;;;3.47;;
6638;SDS011;3355;52.882;8.430;2023-05-14T12:54:40;4.33;;;4.03;;
6638;SDS011;3355;52.882;8.430;2023-05-14T12:57:07;3.40;;;3.10;;
6638;SDS011;3355;52.882;8.430;2023-05-14T12:59:34;4.10;;;3.70;;
6638;SDS011;3355;52.882;8.430;2023-05-14T13:02:02;3.97;;;3.67;;
6638;SDS011;3355;52.882;8.430;2023-05-14T13:04:28;4.00;;;3.67;;
6638;SDS011;3355;52.882;8.430;2023-05-14T13:06:55;4.57;;;4.17;;
6638;SDS011;3355;52.882;8.430;2023-05-14T13:09:23;4.20;;;3.60;;
6638;SDS011;3355;52.882;8.430;2023-05-14T13:11:51;4.17;;;3.87;;
6638;SDS011;3355;52.882;8.430;2023-05-14T13:14:18;3.80;;;3.50;;
6638;SDS011;3355;52.882;8.430;2023-05-14T13:16:45;4.70;;;4.40;;
6638;SDS011;3355;52.882;8.430;2023-05-14T13:19:11;4.30;;;3.90;;
6638;SDS011;3355;52.882;8.430;2023-05-14T13:21:38;3.90;;;3.60;;
6638;SDS011;3355;52.882;8.430;2023-05-14T13:24:05;4.20;;;3.80;;
6638;SDS011;3355;52.882;8.430;2023-05-14T13:26:35;3.83;;;3.50;;
6638;SDS011;3355;52.882;8.430;2023-05-14T13:29:02;7.07;;;4.13;;
6638;SDS011;3355;52.882;8.430;2023-05-14T13:31:28;5.00;;;4.60;;
6638;SDS011;3355;52.882;8.430;2023-05-14T13:33:55;5.67;;;4.03;;
6638;SDS011;3355;52.882;8.430;2023-05-14T13:36:23;4.57;;;4.17;;
6638;SDS011;3355;52.882;8.430;2023-05-14T13:38:50;5.83;;;4.40;;
6638;SDS011;3355;52.882;8.430;2023-05-14T13:41:17;4.30;;;3.90;;
6638;SDS011;3355;52.882;8.430;2023-05-14T13:43:45;4.80;;;4.40;;
6638;SDS011;3355;52.882;8.430;2023-05-14T13:46:11;5.13;;;4.10;;
6638;SDS011;3355;52.882;8.430;2023-05-14T13:48:38;4.50;;;4.10;;
6638;SDS011;3355;52.882;8.430;2023-05-14T13:51:06;4.80;;;4.03;;
6638;SDS011;3355;52.882;8.430;2023-05-14T13:53:32;4.70;;;4.30;;
6638;SDS011;3355;52.882;8.430;2023-05-14T13:55:59;4.90;;;4.50;;
6638;SDS011;3355;52.882;8.430;2023-05-14T13:58:26;4.07;;;3.70;;
6638;SDS011;3355;52.882;8.430;2023-05-14T14:00:55;4.03;;;3.73;;
6638;SDS011;3355;52.882;8.430;2023-05-14T14:03:21;3.87;;;3.57;;
6638;SDS011;3355;52.882;8.430;2023-05-14T14:05:48;3.87;;;3.57;;
6638;SDS011;3355;52.882;8.430;2023-05-14T14:08:16;3.77;;;3.30;;
6638;SDS011;3355;52.882;8.430;2023-05-14T14:10:42;4.20;;;3.90;;
6638;SDS011;3355;52.882;8.430;2023-05-14T14:13:09;3.83;;;3.53;;
6638;SDS011;3355;52.882;8.430;2023-05-14T14:15:36;3.90;;;3.40;;
6638;SDS011;3355;52.882;8.430;2023-05-14T14:18:04;4.53;;;4.13;;
6638;SDS011;3355;52.882;8.430;2023-05-14T14:20:31;3.60;;;3.30;;
6638;SDS011;3355;52.882;8.430;2023-05-14T14:22:58;3.87;;;3.57;;
6638;SDS011;3355;52.882;8.430;2023-05-14T14:25:25;4.50;;;4.10;;
6638;SDS011;3355;52.882;8.430;2023-05-14T14:27:51;3.60;;;3.33;;
6638;SDS011;3355;52.882;8.430;2023-05-14T14:30:18;4.10;;;3.70;;
6638;SDS011;3355;52.882;8.430;2023-05-14T14:32:45;4.13;;;3.80;;
6638;SDS011;3355;52.882;8.430;2023-05-14T14:35:14;4.00;;;3.70;;
6638;SDS011;3355;52.882;8.430;2023-05-14T14:37:42;4.73;;;3.93;;
6638;SDS011;3355;52.882;8.430;2023-05-14T14:40:13;4.13;;;3.83;;
6638;SDS011;3355;52.882;8.430;2023-05-14T14:42:40;3.80;;;3.50;;
6638;SDS011;3355;52.882;8.430;2023-05-14T14:45:07;4.00;;;3.70;;
6638;SDS011;3355;52.882;8.430;2023-05-14T14:47:34;3.87;;;3.57;;
6638;SDS011;3355;52.882;8.430;2023-05-14T14:50:01;4.77;;;4.37;;
6638;SDS011;3355;52.882;8.430;2023-05-14T14:52:30;4.50;;;4.07;;
6638;SDS011;3355;52.882;8.430;2023-05-14T14:54:56;4.47;;;4.07;;
6638;SDS011;3355;52.882;8.430;2023-05-14T14:57:23;3.80;;;3.50;;
6638;SDS011;3355;52.882;8.430;2023-05-14T14:59:50;4.70;;;3.80;;
6638;SDS011;3355;52.882;8.430;2023-05-14T15:02:17;5.07;;;4.67;;
6638;SDS011;3355;52.882;8.430;2023-05-14T15:04:43;4.07;;;3.70;;
6638;SDS011;3355;52.882;8.430;2023-05-14T15:07:10;5.60;;;5.10;;
6638;SDS011;3355;52.882;8.430;2023-05-14T15:09:41;5.70;;;4.83;;
6638;SDS011;3355;52.882;8.430;2023-05-14T15:12:08;6.57;;;5.23;;
6638;SDS011;3355;52.882;8.430;2023-05-14T15:14:35;4.57;;;4.17;;
6638;SDS011;3355;52.882;8.430;2023-05-14T15:17:02;4.37;;;4.07;;